Ladoga, Indiana
Current Conditions -  °F | °C
As of 11:35 AM on Saturday 20 Dec 2014 (Local Time) from K4I7 Reporting Station
Overcast Overcast  
Wind Chill: 32°   Ceiling: 6500
Heat Index: 32°   Visibility: 10mi
Dew Point: 23°   Wind: 0mph
Humidity: 69%   Direction: NA
Pressure: 30.3"   Gusts: NA
Location:  39.91°N, 86.8°W
Report Text: K4I7 201635Z AUTO 00000KT 10SM SCT015 OVC065 00/M05 A3030 RMK AO2
Loading
Personal Weather Stations






























Interactive Weather Map New forecast layout! Learn more

10-Day Weather Forecast

Advertisements
Track Severe Weather on mobile